UAE1 OMDB-EGLL
Flight info
| Callsign | UAE1 |
|---|---|
| Flight time | N/A |
| Altitude | 38000 |
| Route | SENPA N571 ALPOB L768 ULADA Q143 MEDGO N697 HIL A788 HLF L604 WEJ L677 CVO L617 NOZ L551 ANTAR UN133 KPC/N0480F400 DCT FSK DCT DISOR DCT LONTA UL608 DOLEV DCT BOSNA DCT MARIL DCT OKSIG DCT KUSIB DCT GORPA DCT DOL DCT NIPEL DCT MODSA DCT BABEG DCT LIRSU DCT ARCKY DCT BUB L608 LOGAN |
| Aircraft | A359/H-SDE2E3GHIJ3J4J5LM1ORWXY/LB1D1 |
Departure
| Time | 2026-05-06 23:38 |
|---|---|
| Airport | Dubai International Airport (OMDB) |
Arrival
| Time | N/A |
|---|---|
| Airport | London Heathrow Airport (EGLL) |
| Time | Latitude | Longitude | Altitude | Speed | Heading |
|---|---|---|---|---|---|
| 2026-05-06 23:03 | 25.24929 | 55.36220 | 27 ft | 0 kts | 211° |
| 2026-05-06 23:25 | 25.24943 | 55.36230 | 27 ft | 4 kts | 211° |
| 2026-05-06 23:25 | 25.24966 | 55.36244 | 25 ft | 4 kts | 206° |
| 2026-05-06 23:26 | 25.24986 | 55.36256 | 25 ft | 4 kts | 234° |
| 2026-05-06 23:26 | 25.24996 | 55.36277 | 25 ft | 4 kts | 261° |
| 2026-05-06 23:26 | 25.24996 | 55.36297 | 26 ft | 4 kts | 294° |
| 2026-05-06 23:26 | 25.24988 | 55.36314 | 26 ft | 4 kts | 303° |
| 2026-05-06 23:27 | 25.24979 | 55.36329 | 26 ft | 1 kts | 300° |
| 2026-05-06 23:27 | 25.24978 | 55.36331 | 26 ft | 0 kts | 300° |
| 2026-05-06 23:31 | 25.24979 | 55.36329 | 26 ft | 2 kts | 300° |
| 2026-05-06 23:31 | 25.25007 | 55.36295 | 24 ft | 9 kts | 327° |
| 2026-05-06 23:31 | 25.25085 | 55.36304 | 28 ft | 15 kts | 27° |
| 2026-05-06 23:32 | 25.25190 | 55.36372 | 31 ft | 20 kts | 31° |
| 2026-05-06 23:32 | 25.25223 | 55.36394 | 32 ft | 1 kts | 31° |
| 2026-05-06 23:32 | 25.25243 | 55.36408 | 33 ft | 8 kts | 31° |
| 2026-05-06 23:32 | 25.25318 | 55.36458 | 34 ft | 16 kts | 31° |
| 2026-05-06 23:33 | 25.25410 | 55.36547 | 30 ft | 17 kts | 86° |
| 2026-05-06 23:33 | 25.25364 | 55.36666 | 30 ft | 16 kts | 123° |
| 2026-05-06 23:33 | 25.25307 | 55.36769 | 30 ft | 16 kts | 121° |
| 2026-05-06 23:33 | 25.25250 | 55.36872 | 30 ft | 16 kts | 121° |
| 2026-05-06 23:34 | 25.25189 | 55.36979 | 30 ft | 16 kts | 122° |
| 2026-05-06 23:34 | 25.25128 | 55.37086 | 31 ft | 16 kts | 122° |
| 2026-05-06 23:34 | 25.25067 | 55.37193 | 31 ft | 17 kts | 122° |
| 2026-05-06 23:34 | 25.25003 | 55.37304 | 31 ft | 17 kts | 122° |
| 2026-05-06 23:35 | 25.24941 | 55.37417 | 32 ft | 17 kts | 122° |
| 2026-05-06 23:35 | 25.24879 | 55.37528 | 31 ft | 17 kts | 122° |
| 2026-05-06 23:35 | 25.24814 | 55.37643 | 31 ft | 18 kts | 122° |
| 2026-05-06 23:35 | 25.24747 | 55.37760 | 31 ft | 18 kts | 122° |
| 2026-05-06 23:36 | 25.24681 | 55.37885 | 31 ft | 18 kts | 109° |
| 2026-05-06 23:36 | 25.24724 | 55.37985 | 33 ft | 13 kts | 28° |
| 2026-05-06 23:36 | 25.24791 | 55.38001 | 36 ft | 8 kts | 345° |
| 2026-05-06 23:36 | 25.24839 | 55.37971 | 36 ft | 6 kts | 310° |
| 2026-05-06 23:37 | 25.24856 | 55.37950 | 36 ft | 2 kts | 302° |
| 2026-05-06 23:37 | 25.24863 | 55.37937 | 36 ft | 10 kts | 302° |
| 2026-05-06 23:37 | 25.25012 | 55.37660 | 37 ft | 72 kts | 301° |
| 2026-05-06 23:37 | 25.25365 | 55.37025 | 36 ft | 123 kts | 301° |
| 2026-05-06 23:38 | 25.25896 | 55.36069 | 53 ft | 166 kts | 301° |
| 2026-05-06 23:38 | 25.26516 | 55.34933 | 416 ft | 178 kts | 302° |
| 2026-05-06 23:38 | 25.27177 | 55.33743 | 966 ft | 176 kts | 302° |
| 2026-05-06 23:38 | 25.27819 | 55.32592 | 1355 ft | 181 kts | 302° |
| 2026-05-06 23:39 | 25.28506 | 55.31359 | 1498 ft | 196 kts | 302° |
| 2026-05-06 23:39 | 25.29238 | 55.30012 | 1644 ft | 212 kts | 298° |
| 2026-05-06 23:39 | 25.29677 | 55.28425 | 1867 ft | 222 kts | 279° |
| 2026-05-06 23:39 | 25.29837 | 55.26714 | 2266 ft | 223 kts | 275° |
| 2026-05-06 23:40 | 25.29957 | 55.24998 | 2656 ft | 225 kts | 274° |
| 2026-05-06 23:40 | 25.30076 | 55.23272 | 3042 ft | 226 kts | 274° |
| 2026-05-06 23:40 | 25.30203 | 55.21533 | 3420 ft | 228 kts | 274° |
| 2026-05-06 23:40 | 25.30333 | 55.19780 | 3810 ft | 229 kts | 275° |
| 2026-05-06 23:41 | 25.30390 | 55.18010 | 4115 ft | 235 kts | 269° |
| 2026-05-06 23:41 | 25.30289 | 55.16138 | 4274 ft | 252 kts | 265° |
| 2026-05-06 23:41 | 25.30135 | 55.14151 | 4501 ft | 266 kts | 265° |
| 2026-05-06 23:41 | 25.29963 | 55.12092 | 4898 ft | 271 kts | 264° |
| 2026-05-06 23:42 | 25.29792 | 55.10014 | 5353 ft | 273 kts | 265° |
| 2026-05-06 23:42 | 25.29625 | 55.07921 | 5829 ft | 275 kts | 265° |
| 2026-05-06 23:42 | 25.29457 | 55.05796 | 6304 ft | 278 kts | 265° |
| 2026-05-06 23:42 | 25.29291 | 55.03663 | 6725 ft | 281 kts | 265° |
| 2026-05-06 23:43 | 25.29122 | 55.01497 | 7160 ft | 284 kts | 265° |
| 2026-05-06 23:43 | 25.28952 | 54.99307 | 7581 ft | 288 kts | 265° |
| 2026-05-06 23:43 | 25.28780 | 54.97093 | 8009 ft | 292 kts | 265° |
| 2026-05-06 23:43 | 25.28605 | 54.94842 | 8468 ft | 295 kts | 265° |
| 2026-05-06 23:44 | 25.28475 | 54.92573 | 8910 ft | 298 kts | 268° |
| 2026-05-06 23:44 | 25.28414 | 54.90276 | 9366 ft | 301 kts | 269° |
| 2026-05-06 23:44 | 25.28359 | 54.87952 | 9803 ft | 304 kts | 269° |
| 2026-05-06 23:44 | 25.28300 | 54.85602 | 10182 ft | 310 kts | 269° |
| 2026-05-06 23:45 | 25.28238 | 54.83179 | 10365 ft | 322 kts | 269° |
| 2026-05-06 23:45 | 25.28175 | 54.80663 | 10545 ft | 334 kts | 269° |
| 2026-05-06 23:45 | 25.28107 | 54.78048 | 10714 ft | 346 kts | 269° |
| 2026-05-06 23:45 | 25.28073 | 54.75355 | 10879 ft | 356 kts | 274° |
| 2026-05-06 23:46 | 25.28481 | 54.72624 | 11035 ft | 365 kts | 285° |
| 2026-05-06 23:46 | 25.29158 | 54.69881 | 11206 ft | 375 kts | 287° |
| 2026-05-06 23:46 | 25.29889 | 54.67083 | 11360 ft | 384 kts | 288° |
| 2026-05-06 23:46 | 25.30633 | 54.64214 | 11525 ft | 392 kts | 287° |
| 2026-05-06 23:47 | 25.31380 | 54.61300 | 11773 ft | 397 kts | 287° |
| 2026-05-06 23:47 | 25.32131 | 54.58350 | 12075 ft | 400 kts | 287° |
| 2026-05-06 23:47 | 25.32883 | 54.55377 | 12387 ft | 403 kts | 287° |
| 2026-05-06 23:47 | 25.33630 | 54.52427 | 12708 ft | 405 kts | 287° |
| 2026-05-06 23:48 | 25.34431 | 54.49387 | 13027 ft | 408 kts | 288° |
| 2026-05-06 23:48 | 25.35238 | 54.46415 | 13344 ft | 410 kts | 288° |
| 2026-05-06 23:48 | 25.36080 | 54.43346 | 13655 ft | 413 kts | 288° |
| 2026-05-06 23:48 | 25.36913 | 54.40306 | 13965 ft | 414 kts | 288° |
| 2026-05-06 23:49 | 25.37735 | 54.37293 | 14309 ft | 414 kts | 288° |
| 2026-05-06 23:49 | 25.38574 | 54.34197 | 14662 ft | 415 kts | 288° |
| 2026-05-06 23:49 | 25.39390 | 54.31175 | 14991 ft | 416 kts | 287° |
| 2026-05-06 23:49 | 25.40216 | 54.28107 | 15341 ft | 417 kts | 287° |
| 2026-05-06 23:50 | 25.41042 | 54.24990 | 15700 ft | 418 kts | 287° |
| 2026-05-06 23:50 | 25.42574 | 54.18826 | 16395 ft | 419 kts | 285° |
| 2026-05-06 23:50 | 25.43333 | 54.15705 | 16735 ft | 420 kts | 285° |
| 2026-05-06 23:51 | 25.44094 | 54.12581 | 17070 ft | 422 kts | 285° |
| 2026-05-06 23:51 | 25.44863 | 54.09446 | 17373 ft | 424 kts | 285° |
| 2026-05-06 23:51 | 25.45633 | 54.06296 | 17708 ft | 425 kts | 285° |
| 2026-05-06 23:51 | 25.46392 | 54.03140 | 18077 ft | 424 kts | 284° |
| 2026-05-06 23:52 | 25.47148 | 53.99977 | 18385 ft | 425 kts | 284° |
| 2026-05-06 23:52 | 25.47903 | 53.96812 | 18651 ft | 426 kts | 284° |
| 2026-05-06 23:52 | 25.48661 | 53.93640 | 18910 ft | 428 kts | 284° |
| 2026-05-06 23:52 | 25.49423 | 53.90454 | 19162 ft | 429 kts | 284° |
| 2026-05-06 23:53 | 25.50189 | 53.87254 | 19432 ft | 430 kts | 284° |
| 2026-05-06 23:53 | 25.50955 | 53.84056 | 19693 ft | 431 kts | 284° |
| 2026-05-06 23:53 | 25.51725 | 53.80837 | 19950 ft | 433 kts | 284° |
| 2026-05-06 23:53 | 25.52497 | 53.77610 | 20208 ft | 434 kts | 284° |
| 2026-05-06 23:54 | 25.53269 | 53.74380 | 20460 ft | 435 kts | 284° |
| 2026-05-06 23:54 | 25.54047 | 53.71144 | 20700 ft | 436 kts | 284° |
| 2026-05-06 23:54 | 25.54826 | 53.67892 | 20941 ft | 438 kts | 284° |
| 2026-05-06 23:54 | 25.55604 | 53.64631 | 21190 ft | 439 kts | 284° |
| 2026-05-06 23:55 | 25.56385 | 53.61358 | 21441 ft | 440 kts | 284° |
| 2026-05-06 23:55 | 25.57166 | 53.58083 | 21685 ft | 441 kts | 283° |
| 2026-05-06 23:55 | 25.57948 | 53.54799 | 21930 ft | 442 kts | 283° |
| 2026-05-06 23:55 | 25.58731 | 53.51509 | 22168 ft | 443 kts | 283° |
| 2026-05-06 23:56 | 25.59518 | 53.48200 | 22420 ft | 444 kts | 283° |
| 2026-05-06 23:56 | 25.60303 | 53.44895 | 22675 ft | 444 kts | 283° |
| 2026-05-06 23:56 | 25.61090 | 53.41579 | 22893 ft | 446 kts | 283° |
| 2026-05-06 23:56 | 25.61877 | 53.38260 | 23132 ft | 447 kts | 283° |
| 2026-05-06 23:57 | 25.62666 | 53.34921 | 23359 ft | 448 kts | 283° |
| 2026-05-06 23:57 | 25.63454 | 53.31580 | 23554 ft | 448 kts | 283° |
| 2026-05-06 23:57 | 25.64242 | 53.28236 | 23750 ft | 449 kts | 283° |
| 2026-05-06 23:57 | 25.65030 | 53.24887 | 23954 ft | 450 kts | 283° |
| 2026-05-06 23:58 | 25.65818 | 53.21533 | 24153 ft | 450 kts | 283° |
| 2026-05-06 23:58 | 25.66608 | 53.18173 | 24360 ft | 450 kts | 283° |
| 2026-05-06 23:58 | 25.67396 | 53.14813 | 24554 ft | 451 kts | 283° |
| 2026-05-06 23:58 | 25.68185 | 53.11445 | 24740 ft | 451 kts | 283° |
| 2026-05-06 23:59 | 25.68974 | 53.08076 | 24934 ft | 452 kts | 283° |
| 2026-05-06 23:59 | 25.69766 | 53.04702 | 25130 ft | 452 kts | 283° |
| 2026-05-06 23:59 | 25.70771 | 53.01392 | 25311 ft | 455 kts | 290° |
| 2026-05-06 23:59 | 25.72088 | 52.98198 | 25498 ft | 456 kts | 293° |
| 2026-05-07 00:00 | 25.73503 | 52.95044 | 25684 ft | 457 kts | 294° |
| 2026-05-07 00:00 | 25.74970 | 52.91916 | 25868 ft | 458 kts | 295° |
| 2026-05-07 00:00 | 25.76464 | 52.88791 | 26050 ft | 458 kts | 295° |
| 2026-05-07 00:00 | 25.77455 | 52.86728 | 26156 ft | 459 kts | 295° |
| 2026-05-07 00:01 | 25.79440 | 52.82585 | 26408 ft | 459 kts | 295° |
| 2026-05-07 00:01 | 25.80934 | 52.79446 | 26589 ft | 460 kts | 295° |
| 2026-05-07 00:01 | 25.82443 | 52.76259 | 26769 ft | 461 kts | 295° |
| 2026-05-07 00:01 | 25.83909 | 52.73152 | 26939 ft | 461 kts | 295° |
| 2026-05-07 00:02 | 25.85397 | 52.69990 | 27097 ft | 462 kts | 294° |
| 2026-05-07 00:02 | 25.86882 | 52.66830 | 27270 ft | 463 kts | 294° |
| 2026-05-07 00:02 | 25.88374 | 52.63652 | 27438 ft | 463 kts | 294° |
| 2026-05-07 00:02 | 25.89863 | 52.60478 | 27591 ft | 464 kts | 294° |
| 2026-05-07 00:03 | 25.91341 | 52.57282 | 27739 ft | 465 kts | 293° |
| 2026-05-07 00:03 | 25.92772 | 52.54063 | 27911 ft | 465 kts | 292° |
| 2026-05-07 00:03 | 25.94182 | 52.50830 | 28062 ft | 466 kts | 292° |
| 2026-05-07 00:03 | 25.95593 | 52.47578 | 28211 ft | 467 kts | 292° |
| 2026-05-07 00:04 | 25.97006 | 52.44328 | 28363 ft | 468 kts | 292° |
| 2026-05-07 00:04 | 25.98426 | 52.41075 | 28514 ft | 468 kts | 292° |
| 2026-05-07 00:04 | 25.99856 | 52.37820 | 28660 ft | 469 kts | 292° |
| 2026-05-07 00:04 | 26.01304 | 52.34566 | 28803 ft | 470 kts | 293° |
| 2026-05-07 00:05 | 26.02761 | 52.31306 | 28944 ft | 471 kts | 293° |
| 2026-05-07 00:05 | 26.04219 | 52.28050 | 29089 ft | 471 kts | 293° |
| 2026-05-07 00:05 | 26.05681 | 52.24782 | 29237 ft | 472 kts | 292° |
| 2026-05-07 00:05 | 26.07141 | 52.21513 | 29368 ft | 472 kts | 292° |
| 2026-05-07 00:06 | 26.08601 | 52.18237 | 29533 ft | 473 kts | 292° |
| 2026-05-07 00:06 | 26.10061 | 52.14956 | 29667 ft | 473 kts | 292° |
| 2026-05-07 00:06 | 26.11521 | 52.11673 | 29822 ft | 474 kts | 292° |
| 2026-05-07 00:06 | 26.12982 | 52.08382 | 29946 ft | 475 kts | 292° |
| 2026-05-07 00:07 | 26.14446 | 52.05083 | 30055 ft | 475 kts | 292° |
| 2026-05-07 00:07 | 26.15910 | 52.01783 | 30194 ft | 475 kts | 292° |
| 2026-05-07 00:07 | 26.17371 | 51.98488 | 30383 ft | 474 kts | 292° |
| 2026-05-07 00:07 | 26.18843 | 51.95208 | 30576 ft | 474 kts | 292° |
| 2026-05-07 00:08 | 26.20325 | 51.91932 | 30782 ft | 473 kts | 292° |
| 2026-05-07 00:08 | 26.21790 | 51.88656 | 31001 ft | 471 kts | 292° |
| 2026-05-07 00:08 | 26.23231 | 51.85391 | 31233 ft | 470 kts | 292° |
| 2026-05-07 00:08 | 26.24665 | 51.82124 | 31458 ft | 469 kts | 292° |
| 2026-05-07 00:09 | 26.26094 | 51.78869 | 31673 ft | 468 kts | 292° |
| 2026-05-07 00:09 | 26.27535 | 51.75619 | 31906 ft | 467 kts | 292° |
| 2026-05-07 00:09 | 26.28972 | 51.72391 | 32132 ft | 465 kts | 292° |
| 2026-05-07 00:09 | 26.30412 | 51.69160 | 32363 ft | 464 kts | 292° |
| 2026-05-07 00:10 | 26.31849 | 51.65937 | 32592 ft | 463 kts | 291° |
| 2026-05-07 00:10 | 26.33284 | 51.62728 | 32820 ft | 462 kts | 291° |
| 2026-05-07 00:10 | 26.34713 | 51.59528 | 33062 ft | 461 kts | 291° |
| 2026-05-07 00:10 | 26.36138 | 51.56330 | 33308 ft | 459 kts | 291° |
| 2026-05-07 00:11 | 26.37511 | 51.53123 | 33541 ft | 456 kts | 288° |
| 2026-05-07 00:11 | 26.38665 | 51.49846 | 33781 ft | 453 kts | 286° |
| 2026-05-07 00:11 | 26.39758 | 51.46558 | 34017 ft | 452 kts | 285° |
| 2026-05-07 00:11 | 26.40819 | 51.43271 | 34228 ft | 450 kts | 285° |
| 2026-05-07 00:12 | 26.41865 | 51.39979 | 34444 ft | 449 kts | 284° |
| 2026-05-07 00:12 | 26.42903 | 51.36698 | 34648 ft | 448 kts | 284° |
| 2026-05-07 00:12 | 26.43944 | 51.33421 | 34848 ft | 447 kts | 284° |
| 2026-05-07 00:12 | 26.44630 | 51.31264 | 34988 ft | 447 kts | 284° |
| 2026-05-07 00:13 | 26.45671 | 51.27991 | 35200 ft | 446 kts | 284° |
| 2026-05-07 00:13 | 26.47046 | 51.23687 | 35472 ft | 445 kts | 284° |
| 2026-05-07 00:13 | 26.47748 | 51.21488 | 35628 ft | 444 kts | 284° |
| 2026-05-07 00:13 | 26.48780 | 51.18249 | 35833 ft | 443 kts | 284° |
| 2026-05-07 00:14 | 26.49808 | 51.15015 | 36047 ft | 442 kts | 284° |
| 2026-05-07 00:14 | 26.50835 | 51.11786 | 36256 ft | 441 kts | 284° |
| 2026-05-07 00:14 | 26.51859 | 51.08564 | 36464 ft | 440 kts | 284° |
| 2026-05-07 00:14 | 26.52879 | 51.05351 | 36672 ft | 439 kts | 284° |
| 2026-05-07 00:15 | 26.53896 | 51.02144 | 36871 ft | 438 kts | 284° |
| 2026-05-07 00:15 | 26.54912 | 50.98940 | 37074 ft | 437 kts | 284° |
| 2026-05-07 00:15 | 26.55924 | 50.95745 | 37265 ft | 436 kts | 284° |
| 2026-05-07 00:15 | 26.56932 | 50.92560 | 37461 ft | 435 kts | 284° |
| 2026-05-07 00:16 | 26.57939 | 50.89381 | 37652 ft | 434 kts | 284° |
| 2026-05-07 00:16 | 26.58935 | 50.86197 | 37805 ft | 434 kts | 284° |
| 2026-05-07 00:16 | 26.60899 | 50.79835 | 37815 ft | 433 kts | 284° |
| 2026-05-07 00:17 | 26.62843 | 50.73524 | 37814 ft | 432 kts | 284° |
| 2026-05-07 00:17 | 26.64797 | 50.67182 | 37821 ft | 432 kts | 284° |
| 2026-05-07 00:18 | 26.66693 | 50.60824 | 37820 ft | 431 kts | 283° |
| 2026-05-07 00:18 | 26.68560 | 50.54463 | 37818 ft | 430 kts | 283° |
| 2026-05-07 00:19 | 26.70429 | 50.48111 | 37816 ft | 430 kts | 283° |
| 2026-05-07 00:19 | 26.72175 | 50.41720 | 37813 ft | 428 kts | 281° |
| 2026-05-07 00:20 | 26.73767 | 50.35301 | 37824 ft | 428 kts | 281° |
| 2026-05-07 00:20 | 26.75284 | 50.28879 | 37816 ft | 425 kts | 277° |
| 2026-05-07 00:21 | 26.75831 | 50.22355 | 37815 ft | 420 kts | 269° |
| 2026-05-07 00:21 | 26.75931 | 50.15829 | 37817 ft | 419 kts | 267° |
| 2026-05-07 00:22 | 26.75958 | 50.09316 | 37821 ft | 419 kts | 267° |
| 2026-05-07 00:22 | 26.75996 | 50.02803 | 37819 ft | 418 kts | 267° |
| 2026-05-07 00:23 | 26.76047 | 49.96290 | 37822 ft | 418 kts | 267° |
| 2026-05-07 00:23 | 26.76106 | 49.89786 | 37824 ft | 418 kts | 267° |
| 2026-05-07 00:24 | 26.76154 | 49.83274 | 37819 ft | 418 kts | 267° |
| 2026-05-07 00:24 | 26.76198 | 49.76765 | 37825 ft | 419 kts | 267° |
| 2026-05-07 00:25 | 26.76241 | 49.70251 | 37825 ft | 419 kts | 267° |
| 2026-05-07 00:25 | 26.76281 | 49.63735 | 37825 ft | 419 kts | 267° |
| 2026-05-07 00:26 | 26.76320 | 49.57215 | 37827 ft | 419 kts | 267° |
| 2026-05-07 00:26 | 26.76360 | 49.50695 | 37835 ft | 419 kts | 267° |
| 2026-05-07 00:27 | 26.76393 | 49.44165 | 37836 ft | 419 kts | 266° |
| 2026-05-07 00:27 | 26.76423 | 49.37644 | 37843 ft | 419 kts | 266° |
| 2026-05-07 00:28 | 26.76455 | 49.31116 | 37842 ft | 420 kts | 266° |
| 2026-05-07 00:28 | 26.76476 | 49.24636 | 37854 ft | 419 kts | 266° |
| 2026-05-07 00:29 | 26.76495 | 49.18111 | 37855 ft | 419 kts | 266° |
| 2026-05-07 00:30 | 26.76527 | 49.05093 | 37868 ft | 418 kts | 266° |
| 2026-05-07 00:30 | 26.76540 | 48.98602 | 37870 ft | 417 kts | 266° |
| 2026-05-07 00:31 | 26.76549 | 48.92104 | 37874 ft | 417 kts | 266° |
| 2026-05-07 00:31 | 26.76555 | 48.85619 | 37880 ft | 417 kts | 266° |
| 2026-05-07 00:32 | 26.76559 | 48.79136 | 37884 ft | 416 kts | 266° |
| 2026-05-07 00:32 | 26.76559 | 48.72668 | 37889 ft | 416 kts | 266° |
| 2026-05-07 00:33 | 26.76523 | 48.66201 | 37898 ft | 415 kts | 265° |
| 2026-05-07 00:33 | 26.76339 | 48.59760 | 37897 ft | 414 kts | 264° |
| 2026-05-07 00:34 | 26.76129 | 48.53316 | 37896 ft | 414 kts | 264° |
| 2026-05-07 00:34 | 26.75940 | 48.46886 | 37910 ft | 414 kts | 264° |
| 2026-05-07 00:35 | 26.75762 | 48.40447 | 37904 ft | 414 kts | 264° |
| 2026-05-07 00:35 | 26.75586 | 48.34022 | 37916 ft | 413 kts | 264° |
| 2026-05-07 00:36 | 26.75412 | 48.27598 | 37915 ft | 413 kts | 264° |
| 2026-05-07 00:36 | 26.75229 | 48.21169 | 37922 ft | 413 kts | 264° |
| 2026-05-07 00:37 | 26.75043 | 48.14741 | 37931 ft | 413 kts | 264° |
| 2026-05-07 00:37 | 26.74855 | 48.08309 | 37931 ft | 413 kts | 264° |
| 2026-05-07 00:38 | 26.74665 | 48.01884 | 37930 ft | 413 kts | 264° |
| 2026-05-07 00:38 | 26.74472 | 47.95456 | 37929 ft | 413 kts | 264° |
| 2026-05-07 00:39 | 26.74299 | 47.89026 | 37931 ft | 414 kts | 266° |
| 2026-05-07 00:39 | 26.74522 | 47.82610 | 37934 ft | 416 kts | 268° |
| 2026-05-07 00:40 | 26.74846 | 47.76154 | 37936 ft | 416 kts | 269° |
| 2026-05-07 00:40 | 26.75184 | 47.69697 | 37940 ft | 415 kts | 269° |
| 2026-05-07 00:41 | 26.75511 | 47.63250 | 37939 ft | 415 kts | 268° |
| 2026-05-07 00:41 | 26.75828 | 47.56809 | 37939 ft | 415 kts | 268° |
| 2026-05-07 00:42 | 26.76142 | 47.50366 | 37942 ft | 414 kts | 268° |
| 2026-05-07 00:42 | 26.76453 | 47.43927 | 37943 ft | 414 kts | 268° |
| 2026-05-07 00:43 | 26.76848 | 47.37496 | 37944 ft | 417 kts | 272° |
| 2026-05-07 00:43 | 26.77739 | 47.31079 | 37945 ft | 418 kts | 274° |
| 2026-05-07 00:44 | 26.78733 | 47.24674 | 37949 ft | 417 kts | 274° |
| 2026-05-07 00:44 | 26.79734 | 47.18284 | 37943 ft | 417 kts | 274° |
| 2026-05-07 00:45 | 26.80723 | 47.11889 | 37943 ft | 417 kts | 274° |
| 2026-05-07 00:45 | 26.81700 | 47.05503 | 37950 ft | 417 kts | 274° |
| 2026-05-07 00:46 | 26.82673 | 46.99112 | 37946 ft | 416 kts | 274° |
| 2026-05-07 00:46 | 26.83643 | 46.92721 | 37943 ft | 416 kts | 274° |
| 2026-05-07 00:47 | 26.84610 | 46.86340 | 37946 ft | 416 kts | 274° |
| 2026-05-07 00:47 | 26.85573 | 46.79956 | 37940 ft | 415 kts | 274° |
| 2026-05-07 00:48 | 26.86533 | 46.73581 | 37944 ft | 415 kts | 274° |
| 2026-05-07 00:48 | 26.87489 | 46.67208 | 37945 ft | 415 kts | 274° |
| 2026-05-07 00:49 | 26.88441 | 46.60843 | 37949 ft | 414 kts | 274° |
| 2026-05-07 00:49 | 26.89390 | 46.54474 | 37949 ft | 414 kts | 274° |
| 2026-05-07 00:50 | 26.90335 | 46.48115 | 37949 ft | 414 kts | 274° |
| 2026-05-07 00:50 | 26.91277 | 46.41758 | 37949 ft | 414 kts | 274° |
| 2026-05-07 00:51 | 26.92221 | 46.35403 | 37950 ft | 413 kts | 274° |
| 2026-05-07 00:51 | 26.93162 | 46.29049 | 37943 ft | 413 kts | 273° |
| 2026-05-07 00:52 | 26.94091 | 46.22739 | 37952 ft | 413 kts | 273° |
| 2026-05-07 00:52 | 26.95030 | 46.16351 | 37953 ft | 413 kts | 273° |
| 2026-05-07 00:53 | 26.95955 | 46.10045 | 37950 ft | 413 kts | 273° |
| 2026-05-07 00:53 | 26.96884 | 46.03695 | 37951 ft | 413 kts | 273° |
| 2026-05-07 00:54 | 26.97503 | 45.99452 | 37953 ft | 413 kts | 273° |
| 2026-05-07 00:54 | 26.98129 | 45.95146 | 37956 ft | 413 kts | 273° |
| 2026-05-07 00:55 | 26.99051 | 45.88795 | 37955 ft | 413 kts | 273° |
| 2026-05-07 00:55 | 26.99969 | 45.82444 | 37948 ft | 413 kts | 273° |
| 2026-05-07 00:56 | 27.00884 | 45.76094 | 37959 ft | 413 kts | 273° |
| 2026-05-07 00:56 | 27.01800 | 45.69721 | 37954 ft | 413 kts | 273° |
| 2026-05-07 00:57 | 27.02707 | 45.63386 | 37958 ft | 413 kts | 273° |
| 2026-05-07 00:57 | 27.03618 | 45.57003 | 37959 ft | 413 kts | 273° |
| 2026-05-07 00:58 | 27.04525 | 45.50643 | 37961 ft | 413 kts | 273° |
| 2026-05-07 00:58 | 27.05430 | 45.44266 | 37963 ft | 414 kts | 273° |
| 2026-05-07 00:59 | 27.06561 | 45.34747 | 37959 ft | 412 kts | 271° |
| 2026-05-07 01:00 | 27.07226 | 45.28355 | 37959 ft | 412 kts | 271° |
| 2026-05-07 01:00 | 27.07916 | 45.21957 | 37962 ft | 413 kts | 271° |
| 2026-05-07 01:01 | 27.08507 | 45.16591 | 37968 ft | 413 kts | 271° |
| 2026-05-07 01:01 | 27.09217 | 45.10181 | 37960 ft | 414 kts | 271° |
| 2026-05-07 01:02 | 27.09887 | 45.04106 | 37964 ft | 414 kts | 271° |
| 2026-05-07 01:02 | 27.10591 | 44.97678 | 37963 ft | 415 kts | 271° |
| 2026-05-07 01:03 | 27.11292 | 44.91246 | 37961 ft | 415 kts | 271° |
| 2026-05-07 01:03 | 27.11987 | 44.84846 | 37961 ft | 416 kts | 271° |
| 2026-05-07 01:04 | 27.12684 | 44.78401 | 37960 ft | 416 kts | 271° |
| 2026-05-07 01:04 | 27.13383 | 44.71907 | 37959 ft | 416 kts | 271° |
| 2026-05-07 01:05 | 27.14072 | 44.65500 | 37966 ft | 417 kts | 271° |
| 2026-05-07 01:05 | 27.14767 | 44.58991 | 37965 ft | 417 kts | 270° |
| 2026-05-07 01:06 | 27.15455 | 44.52526 | 37959 ft | 417 kts | 270° |
| 2026-05-07 01:06 | 27.16134 | 44.46108 | 37967 ft | 417 kts | 270° |
| 2026-05-07 01:07 | 27.16805 | 44.39744 | 37964 ft | 418 kts | 270° |
| 2026-05-07 01:07 | 27.17490 | 44.33258 | 37971 ft | 418 kts | 270° |
| 2026-05-07 01:08 | 27.18159 | 44.26777 | 37965 ft | 418 kts | 270° |
| 2026-05-07 01:08 | 27.18822 | 44.20308 | 37964 ft | 418 kts | 270° |
| 2026-05-07 01:09 | 27.19488 | 44.13822 | 37963 ft | 418 kts | 270° |
| 2026-05-07 01:09 | 27.20153 | 44.07316 | 37971 ft | 418 kts | 270° |
| 2026-05-07 01:10 | 27.20813 | 44.00823 | 37973 ft | 419 kts | 270° |
| 2026-05-07 01:10 | 27.21471 | 43.94337 | 37967 ft | 419 kts | 270° |
| 2026-05-07 01:11 | 27.22127 | 43.87827 | 37970 ft | 419 kts | 270° |
| 2026-05-07 01:11 | 27.22778 | 43.81340 | 37973 ft | 419 kts | 270° |
| 2026-05-07 01:12 | 27.23429 | 43.74822 | 37970 ft | 419 kts | 270° |
| 2026-05-07 01:12 | 27.24045 | 43.68640 | 37966 ft | 419 kts | 270° |
| 2026-05-07 01:13 | 27.24699 | 43.62077 | 37971 ft | 419 kts | 270° |
| 2026-05-07 01:13 | 27.25335 | 43.55611 | 37976 ft | 419 kts | 270° |
| 2026-05-07 01:14 | 27.25978 | 43.49051 | 37975 ft | 420 kts | 270° |
| 2026-05-07 01:14 | 27.26615 | 43.42534 | 37981 ft | 420 kts | 270° |
| 2026-05-07 01:15 | 27.27041 | 43.38158 | 37983 ft | 421 kts | 270° |
| 2026-05-07 01:15 | 27.27677 | 43.31610 | 37985 ft | 421 kts | 270° |
| 2026-05-07 01:16 | 27.28305 | 43.25102 | 37989 ft | 422 kts | 270° |
| 2026-05-07 01:16 | 27.28936 | 43.18537 | 37991 ft | 423 kts | 270° |
| 2026-05-07 01:17 | 27.29563 | 43.11973 | 37988 ft | 423 kts | 270° |
| 2026-05-07 01:17 | 27.30189 | 43.05391 | 37998 ft | 423 kts | 270° |
| 2026-05-07 01:18 | 27.30812 | 42.98809 | 37996 ft | 424 kts | 270° |
| 2026-05-07 01:18 | 27.31432 | 42.92233 | 38001 ft | 424 kts | 270° |
| 2026-05-07 01:19 | 27.32050 | 42.85629 | 38004 ft | 424 kts | 270° |
| 2026-05-07 01:19 | 27.32664 | 42.79039 | 38007 ft | 424 kts | 270° |
| 2026-05-07 01:20 | 27.33276 | 42.72446 | 38011 ft | 424 kts | 270° |
| 2026-05-07 01:20 | 27.33885 | 42.65845 | 38011 ft | 424 kts | 270° |
| 2026-05-07 01:21 | 27.34490 | 42.59254 | 38018 ft | 424 kts | 270° |
| 2026-05-07 01:21 | 27.35092 | 42.52660 | 38023 ft | 424 kts | 270° |
| 2026-05-07 01:22 | 27.35690 | 42.46076 | 38024 ft | 423 kts | 270° |
| 2026-05-07 01:22 | 27.36288 | 42.39498 | 38025 ft | 422 kts | 270° |
| 2026-05-07 01:23 | 27.36878 | 42.32924 | 38028 ft | 422 kts | 270° |
| 2026-05-07 01:23 | 27.37462 | 42.26358 | 38031 ft | 422 kts | 270° |
| 2026-05-07 01:24 | 27.38043 | 42.19798 | 38032 ft | 421 kts | 270° |
| 2026-05-07 01:24 | 27.38622 | 42.13244 | 38033 ft | 421 kts | 270° |
| 2026-05-07 01:25 | 27.39198 | 42.06694 | 38039 ft | 420 kts | 270° |
| 2026-05-07 01:25 | 27.39770 | 42.00157 | 38041 ft | 420 kts | 270° |
| 2026-05-07 01:26 | 27.40337 | 41.93622 | 38050 ft | 420 kts | 270° |
| 2026-05-07 01:26 | 27.40902 | 41.87086 | 38045 ft | 420 kts | 270° |
| 2026-05-07 01:27 | 27.41464 | 41.80558 | 38056 ft | 419 kts | 270° |
| 2026-05-07 01:27 | 27.41997 | 41.74022 | 38048 ft | 418 kts | 268° |
| 2026-05-07 01:28 | 27.41648 | 41.67573 | 38055 ft | 410 kts | 256° |
| 2026-05-07 01:28 | 27.39894 | 41.61518 | 38048 ft | 407 kts | 246° |
| 2026-05-07 01:29 | 27.37602 | 41.55749 | 38045 ft | 407 kts | 244° |
| 2026-05-07 01:29 | 27.35225 | 41.49977 | 38052 ft | 406 kts | 244° |
| 2026-05-07 01:30 | 27.32878 | 41.44203 | 38028 ft | 406 kts | 245° |
| 2026-05-07 01:30 | 27.30551 | 41.38407 | 38037 ft | 406 kts | 245° |
| 2026-05-07 01:31 | 27.28838 | 41.32360 | 38019 ft | 409 kts | 256° |
| 2026-05-07 01:31 | 27.28446 | 41.25931 | 38017 ft | 415 kts | 266° |
| 2026-05-07 01:32 | 27.29198 | 41.19438 | 38011 ft | 424 kts | 276° |
| 2026-05-07 01:32 | 27.30736 | 41.13011 | 38006 ft | 427 kts | 279° |
| 2026-05-07 01:33 | 27.32493 | 41.06621 | 38000 ft | 428 kts | 280° |
| 2026-05-07 01:33 | 27.34260 | 41.00230 | 37995 ft | 428 kts | 279° |
| 2026-05-07 01:34 | 27.35987 | 40.93823 | 37993 ft | 427 kts | 279° |
| 2026-05-07 01:34 | 27.37684 | 40.87429 | 37982 ft | 427 kts | 279° |
| 2026-05-07 01:35 | 27.39379 | 40.81011 | 37984 ft | 427 kts | 279° |
| 2026-05-07 01:35 | 27.41071 | 40.74598 | 37980 ft | 428 kts | 279° |
| 2026-05-07 01:36 | 27.42761 | 40.68184 | 37984 ft | 428 kts | 279° |
| 2026-05-07 01:36 | 27.44451 | 40.61760 | 37983 ft | 428 kts | 279° |
| 2026-05-07 01:37 | 27.46124 | 40.55389 | 37988 ft | 427 kts | 279° |
| 2026-05-07 01:37 | 27.47807 | 40.48965 | 37989 ft | 427 kts | 279° |
| 2026-05-07 01:38 | 27.48928 | 40.44682 | 37986 ft | 427 kts | 279° |
| 2026-05-07 01:38 | 27.50528 | 40.38554 | 37988 ft | 427 kts | 279° |
| 2026-05-07 01:39 | 27.52202 | 40.32131 | 37989 ft | 427 kts | 279° |
| 2026-05-07 01:39 | 27.53871 | 40.25712 | 37992 ft | 428 kts | 279° |
| 2026-05-07 01:40 | 27.55539 | 40.19284 | 37990 ft | 427 kts | 279° |
| 2026-05-07 01:40 | 27.57201 | 40.12869 | 37991 ft | 426 kts | 279° |
| 2026-05-07 01:41 | 27.58859 | 40.06453 | 37993 ft | 426 kts | 279° |
| 2026-05-07 01:41 | 27.60510 | 40.00044 | 37998 ft | 426 kts | 279° |
| 2026-05-07 01:42 | 27.62160 | 39.93630 | 37999 ft | 426 kts | 279° |
| 2026-05-07 01:42 | 27.63808 | 39.87216 | 37989 ft | 426 kts | 279° |
| 2026-05-07 01:43 | 27.65453 | 39.80799 | 37988 ft | 426 kts | 278° |
| 2026-05-07 01:43 | 27.67094 | 39.74379 | 37991 ft | 426 kts | 278° |
| 2026-05-07 01:44 | 27.68732 | 39.67961 | 37986 ft | 426 kts | 278° |
| 2026-05-07 01:44 | 27.70353 | 39.61592 | 37985 ft | 426 kts | 278° |
| 2026-05-07 01:45 | 27.71993 | 39.55144 | 37983 ft | 427 kts | 278° |
| 2026-05-07 01:45 | 27.73625 | 39.48708 | 37977 ft | 427 kts | 278° |
| 2026-05-07 01:46 | 27.75255 | 39.42262 | 37984 ft | 427 kts | 278° |
| 2026-05-07 01:46 | 27.76886 | 39.35804 | 37981 ft | 428 kts | 278° |
| 2026-05-07 01:47 | 27.78513 | 39.29341 | 37982 ft | 428 kts | 278° |
| 2026-05-07 01:47 | 27.80136 | 39.22877 | 37976 ft | 428 kts | 278° |
| 2026-05-07 01:48 | 27.81498 | 39.17456 | 37982 ft | 428 kts | 278° |
| 2026-05-07 01:48 | 27.83119 | 39.10987 | 37979 ft | 428 kts | 278° |
| 2026-05-07 01:49 | 27.84727 | 39.04553 | 37979 ft | 429 kts | 278° |
| 2026-05-07 01:49 | 27.86345 | 38.98068 | 37975 ft | 429 kts | 278° |
| 2026-05-07 01:50 | 27.87960 | 38.91583 | 37972 ft | 429 kts | 278° |
| 2026-05-07 01:50 | 27.89570 | 38.85094 | 37973 ft | 429 kts | 278° |
| 2026-05-07 01:51 | 27.91177 | 38.78606 | 37973 ft | 429 kts | 278° |
| 2026-05-07 01:51 | 27.92481 | 38.73332 | 37970 ft | 430 kts | 278° |
| 2026-05-07 01:52 | 27.94089 | 38.66814 | 37972 ft | 430 kts | 278° |
| 2026-05-07 01:52 | 27.94619 | 38.64663 | 37968 ft | 430 kts | 278° |
| 2026-05-07 01:53 | 27.96001 | 38.59048 | 37974 ft | 430 kts | 278° |
| 2026-05-07 01:53 | 27.97604 | 38.52520 | 37975 ft | 431 kts | 278° |
| 2026-05-07 01:54 | 27.99204 | 38.45989 | 37977 ft | 431 kts | 278° |
| 2026-05-07 01:54 | 28.00666 | 38.40008 | 37974 ft | 432 kts | 278° |
| 2026-05-07 01:55 | 28.02265 | 38.33455 | 37976 ft | 432 kts | 278° |
| 2026-05-07 01:55 | 28.03861 | 38.26898 | 37976 ft | 433 kts | 278° |
| 2026-05-07 01:56 | 28.05458 | 38.20323 | 37977 ft | 433 kts | 278° |
| 2026-05-07 01:56 | 28.07042 | 38.13785 | 37986 ft | 434 kts | 278° |
| 2026-05-07 01:57 | 28.08630 | 38.07215 | 37985 ft | 434 kts | 278° |
| 2026-05-07 01:57 | 28.10226 | 38.00601 | 37987 ft | 434 kts | 278° |
| 2026-05-07 01:58 | 28.11811 | 37.94012 | 37990 ft | 434 kts | 278° |
| 2026-05-07 01:58 | 28.13397 | 37.87409 | 37992 ft | 434 kts | 278° |
| 2026-05-07 01:59 | 28.14982 | 37.80798 | 37993 ft | 435 kts | 278° |
| 2026-05-07 01:59 | 28.16360 | 37.75034 | 37994 ft | 434 kts | 278° |
| 2026-05-07 02:00 | 28.17937 | 37.68426 | 37990 ft | 434 kts | 278° |
| 2026-05-07 02:00 | 28.19509 | 37.61821 | 38004 ft | 434 kts | 278° |
| 2026-05-07 02:01 | 28.21071 | 37.55239 | 38011 ft | 435 kts | 278° |
| 2026-05-07 02:01 | 28.22648 | 37.48583 | 38016 ft | 435 kts | 278° |
| 2026-05-07 02:02 | 28.24213 | 37.41961 | 38005 ft | 435 kts | 278° |
| 2026-05-07 02:02 | 28.25769 | 37.35361 | 38006 ft | 435 kts | 278° |
| 2026-05-07 02:03 | 28.27332 | 37.28718 | 38011 ft | 435 kts | 278° |
| 2026-05-07 02:03 | 28.28863 | 37.22196 | 38012 ft | 435 kts | 278° |
| 2026-05-07 02:04 | 28.30419 | 37.15552 | 38017 ft | 435 kts | 278° |
| 2026-05-07 02:04 | 28.31970 | 37.08910 | 38014 ft | 435 kts | 278° |
| 2026-05-07 02:05 | 28.33520 | 37.02260 | 38012 ft | 436 kts | 278° |
| 2026-05-07 02:05 | 28.35062 | 36.95627 | 38018 ft | 436 kts | 278° |
| 2026-05-07 02:06 | 28.36608 | 36.88960 | 38018 ft | 436 kts | 278° |
| 2026-05-07 02:06 | 28.38145 | 36.82317 | 38022 ft | 437 kts | 278° |
| 2026-05-07 02:07 | 28.39692 | 36.75618 | 38021 ft | 437 kts | 278° |
| 2026-05-07 02:07 | 28.41997 | 36.65600 | 38019 ft | 437 kts | 278° |
| 2026-05-07 02:08 | 28.42829 | 36.61977 | 38018 ft | 438 kts | 278° |
| 2026-05-07 02:08 | 28.44290 | 36.55603 | 38019 ft | 438 kts | 278° |
| 2026-05-07 02:09 | 28.45821 | 36.48903 | 38019 ft | 438 kts | 278° |
| 2026-05-07 02:09 | 28.47351 | 36.42196 | 38023 ft | 439 kts | 278° |
| 2026-05-07 02:10 | 28.48877 | 36.35488 | 38026 ft | 439 kts | 278° |
| 2026-05-07 02:10 | 28.50401 | 36.28772 | 38026 ft | 440 kts | 278° |
| 2026-05-07 02:11 | 28.51927 | 36.22031 | 38014 ft | 440 kts | 278° |
| 2026-05-07 02:11 | 28.53451 | 36.15283 | 38016 ft | 440 kts | 278° |
| 2026-05-07 02:12 | 28.54968 | 36.08550 | 38030 ft | 440 kts | 278° |
| 2026-05-07 02:12 | 28.56484 | 36.01805 | 38034 ft | 441 kts | 278° |
| 2026-05-07 02:13 | 28.57742 | 35.96194 | 38015 ft | 441 kts | 278° |
| 2026-05-07 02:13 | 28.59224 | 35.89570 | 38025 ft | 441 kts | 278° |
| 2026-05-07 02:14 | 28.60734 | 35.82803 | 38031 ft | 441 kts | 278° |
| 2026-05-07 02:14 | 28.62228 | 35.76083 | 38028 ft | 442 kts | 278° |
| 2026-05-07 02:15 | 28.63749 | 35.69233 | 38026 ft | 443 kts | 278° |
| 2026-05-07 02:15 | 28.65252 | 35.62447 | 38023 ft | 442 kts | 278° |
| 2026-05-07 02:16 | 28.66744 | 35.55696 | 38018 ft | 442 kts | 278° |
| 2026-05-07 02:16 | 28.68240 | 35.48905 | 38016 ft | 442 kts | 278° |
| 2026-05-07 02:17 | 28.69737 | 35.42092 | 38010 ft | 443 kts | 278° |
| 2026-05-07 02:17 | 28.70976 | 35.36434 | 38009 ft | 443 kts | 278° |
| 2026-05-07 02:18 | 28.72411 | 35.29865 | 38004 ft | 444 kts | 278° |
| 2026-05-07 02:18 | 28.73899 | 35.23056 | 37998 ft | 444 kts | 278° |
| 2026-05-07 02:19 | 28.75387 | 35.16225 | 37993 ft | 444 kts | 278° |
| 2026-05-07 02:19 | 28.76865 | 35.09415 | 37989 ft | 444 kts | 278° |
| 2026-05-07 02:20 | 28.78350 | 35.02558 | 37986 ft | 444 kts | 278° |
| 2026-05-07 02:20 | 28.79828 | 34.95713 | 37983 ft | 445 kts | 278° |
| 2026-05-07 02:21 | 28.81305 | 34.88865 | 37991 ft | 445 kts | 278° |
| 2026-05-07 02:21 | 28.82778 | 34.82012 | 37990 ft | 445 kts | 278° |
| 2026-05-07 02:22 | 28.84251 | 34.75137 | 37996 ft | 446 kts | 278° |
| 2026-05-07 02:22 | 28.85718 | 34.68261 | 38000 ft | 446 kts | 278° |
| 2026-05-07 02:23 | 28.87183 | 34.61380 | 38002 ft | 447 kts | 278° |
| 2026-05-07 02:23 | 28.88650 | 34.54484 | 38015 ft | 447 kts | 278° |
| 2026-05-07 02:24 | 28.90100 | 34.47645 | 38021 ft | 447 kts | 278° |
| 2026-05-07 02:24 | 28.91561 | 34.40732 | 38032 ft | 448 kts | 278° |
| 2026-05-07 02:25 | 28.93020 | 34.33812 | 38039 ft | 448 kts | 278° |
| 2026-05-07 02:25 | 28.94473 | 34.26904 | 38044 ft | 448 kts | 279° |
| 2026-05-07 02:26 | 28.95927 | 34.19969 | 38053 ft | 449 kts | 278° |
| 2026-05-07 02:26 | 28.97375 | 34.13037 | 38059 ft | 449 kts | 278° |
| 2026-05-07 02:27 | 28.98821 | 34.06099 | 38059 ft | 449 kts | 279° |
| 2026-05-07 02:27 | 29.00266 | 33.99154 | 38052 ft | 449 kts | 279° |
| 2026-05-07 02:28 | 29.01707 | 33.92208 | 38051 ft | 449 kts | 279° |
| 2026-05-07 02:28 | 29.03144 | 33.85260 | 38055 ft | 450 kts | 279° |
| 2026-05-07 02:29 | 29.04580 | 33.78302 | 38055 ft | 450 kts | 279° |
| 2026-05-07 02:29 | 29.06009 | 33.71351 | 38047 ft | 450 kts | 279° |
| 2026-05-07 02:30 | 29.07437 | 33.64384 | 38044 ft | 450 kts | 279° |
| 2026-05-07 02:30 | 29.08866 | 33.57398 | 38045 ft | 451 kts | 279° |
| 2026-05-07 02:31 | 29.10289 | 33.50420 | 38044 ft | 451 kts | 279° |
| 2026-05-07 02:31 | 29.11709 | 33.43439 | 38041 ft | 452 kts | 279° |
| 2026-05-07 02:32 | 29.13129 | 33.36435 | 38040 ft | 452 kts | 279° |
| 2026-05-07 02:32 | 29.14544 | 33.29437 | 38037 ft | 452 kts | 279° |
| 2026-05-07 02:33 | 29.15959 | 33.22418 | 37909 ft | 452 kts | 279° |
| 2026-05-07 02:33 | 29.16663 | 33.18922 | 37657 ft | 451 kts | 279° |
| 2026-05-07 02:33 | 29.17368 | 33.15415 | 37387 ft | 452 kts | 279° |
| 2026-05-07 02:34 | 29.18069 | 33.11916 | 37133 ft | 453 kts | 279° |
| 2026-05-07 02:34 | 29.18777 | 33.08383 | 36874 ft | 454 kts | 279° |
| 2026-05-07 02:34 | 29.19481 | 33.04859 | 36614 ft | 456 kts | 280° |
| 2026-05-07 02:34 | 29.20184 | 33.01336 | 36368 ft | 457 kts | 280° |
| 2026-05-07 02:35 | 29.20656 | 32.98972 | 36204 ft | 458 kts | 280° |
| 2026-05-07 02:35 | 29.21598 | 32.94246 | 35880 ft | 460 kts | 281° |
| 2026-05-07 02:35 | 29.22309 | 32.90669 | 35634 ft | 461 kts | 281° |
| 2026-05-07 02:35 | 29.22787 | 32.88263 | 35473 ft | 462 kts | 281° |
| 2026-05-07 02:36 | 29.24380 | 32.80227 | 34899 ft | 464 kts | 281° |
| 2026-05-07 02:36 | 29.25091 | 32.76636 | 34403 ft | 462 kts | 282° |
| 2026-05-07 02:36 | 29.25793 | 32.73070 | 33722 ft | 463 kts | 282° |
| 2026-05-07 02:37 | 29.26505 | 32.69452 | 33018 ft | 463 kts | 282° |